Time;durP1;ratioP1;P1;durP2;ratioP2;P2;SDS_P1;SDS_P2;PMS_P1;PMS_P2;Temp;Humidity;BMP_temperature;BMP_pressure;BME280_temperature;BME280_humidity;BME280_pressure;Samples;Min_cycle;Max_cycle;Signal;HPM_P1;HPM_P2
2022/06/02 00:00:26;;;;;;;1.98;1.67;;;;;;;16.20;62.15;98720.19;4486031;31;20110;-72
2022/06/02 00:03:20;;;;;;;1.90;1.70;;;;;;;16.22;62.53;98718.16;4485726;31;20110;-72
2022/06/02 00:06:06;;;;;;;2.37;1.60;;;;;;;16.21;62.80;98723.62;4485404;32;20097;-71
2022/06/02 00:08:33;;;;;;;5.37;1.85;;;;;;;16.17;62.97;98722.31;4485658;31;20108;-71
2022/06/02 00:11:19;;;;;;;2.45;1.65;;;;;;;16.20;63.09;98717.53;4485363;31;20096;-71
2022/06/02 00:14:19;;;;;;;3.50;1.80;;;;;;;16.24;62.95;98715.34;4485603;32;20481;-72
2022/06/02 00:16:50;;;;;;;1.90;1.60;;;;;;;16.26;62.88;98716.84;4484401;32;20096;-71
2022/06/02 00:19:51;;;;;;;4.50;1.90;;;;;;;16.29;62.46;98716.47;4485621;31;20167;-72
2022/06/02 00:22:55;;;;;;;1.70;1.58;;;;;;;16.27;62.63;98709.72;4485599;31;20076;-71
2022/06/02 00:25:36;;;;;;;3.67;1.55;;;;;;;16.28;62.17;98708.72;4484218;32;20150;-71
2022/06/02 00:28:24;;;;;;;4.35;1.80;;;;;;;16.23;63.47;98708.41;4483774;32;20458;-72
2022/06/02 00:31:02;;;;;;;3.10;1.80;;;;;;;16.24;63.17;98710.06;4485733;31;20092;-71
2022/06/02 00:33:38;;;;;;;2.72;1.65;;;;;;;16.30;62.90;98702.25;4485573;32;20106;-72
2022/06/02 00:36:11;;;;;;;2.33;1.60;;;;;;;16.34;62.97;98702.72;4484019;32;20138;-72
2022/06/02 00:38:39;;;;;;;3.05;1.90;;;;;;;16.24;62.92;98708.25;4485354;31;20197;-71
2022/06/02 00:41:16;;;;;;;3.03;1.67;;;;;;;16.31;62.52;98701.25;4485369;31;20159;-72
2022/06/02 00:44:10;;;;;;;2.35;1.60;;;;;;;16.47;61.74;98697.69;4484282;32;20126;-72
2022/06/02 00:46:42;;;;;;;3.53;1.50;;;;;;;16.58;61.12;98700.91;4485459;32;20085;-72
2022/06/02 00:49:21;;;;;;;1.60;1.50;;;;;;;16.60;61.10;98704.19;4484031;32;20101;-71
2022/06/02 00:52:08;;;;;;;3.25;1.35;;;;;;;16.62;61.00;98699.53;4484265;32;20120;-72
2022/06/02 00:58:05;;;;;;;1.80;1.45;;;;;;;16.77;60.09;98691.66;4484226;32;20155;-71
2022/06/02 01:00:41;;;;;;;3.00;1.42;;;;;;;16.80;60.35;98688.66;4483921;32;20591;-71
2022/06/02 01:03:16;;;;;;;3.55;1.40;;;;;;;16.84;59.92;98687.31;4484232;32;20175;-71
2022/06/02 01:05:58;;;;;;;2.33;1.40;;;;;;;16.91;59.68;98687.41;4485147;31;20088;-72
2022/06/02 01:08:39;;;;;;;4.57;1.40;;;;;;;16.87;60.76;98691.44;4485334;32;20163;-72
2022/06/02 01:11:17;;;;;;;2.67;1.40;;;;;;;16.92;60.32;98689.06;4485023;31;20104;-72
2022/06/02 01:13:53;;;;;;;5.43;1.60;;;;;;;16.94;59.80;98689.72;4484058;32;20105;-71
2022/06/02 01:16:44;;;;;;;2.92;1.45;;;;;;;16.98;59.16;98691.00;4485236;31;20111;-72
2022/06/02 01:19:39;;;;;;;3.15;1.65;;;;;;;17.06;59.50;98679.50;4435815;32;20143;-72
2022/06/02 01:22:14;;;;;;;;;;;;;;;17.10;59.28;98686.91;4436629;32;20210;-72
2022/06/02 01:25:00;;;;;;;1.87;1.15;;;;;;;17.13;58.99;98678.59;4423548;32;20004;-72
2022/06/02 01:28:04;;;;;;;1.25;1.15;;;;;;;17.25;58.76;98675.53;4435879;32;20568;-71
2022/06/02 01:30:49;;;;;;;3.35;1.23;;;;;;;17.36;58.24;98667.91;4434562;32;20109;-72
2022/06/02 01:33:28;;;;;;;3.47;1.80;;;;;;;17.48;57.46;98662.97;4420663;32;20098;-71
2022/06/02 01:36:01;;;;;;;3.60;1.30;;;;;;;17.58;57.06;98662.72;4407759;32;20089;-71
2022/06/02 01:39:04;;;;;;;1.90;1.35;;;;;;;17.73;56.75;98668.00;4420561;32;20093;-71
2022/06/02 01:42:13;;;;;;;2.10;1.23;;;;;;;17.76;56.42;98674.72;4406769;32;20145;-72
2022/06/02 01:44:58;;;;;;;5.97;1.85;;;;;;;17.76;56.91;98678.22;4414630;32;20132;-72
2022/06/02 01:47:34;;;;;;;7.32;1.83;;;;;;;17.83;56.45;98675.63;4408323;32;20192;-72
2022/06/02 01:50:16;;;;;;;2.45;1.40;;;;;;;17.87;56.41;98669.78;4420348;32;20121;-71
2022/06/02 01:52:46;;;;;;;4.10;1.50;;;;;;;17.80;56.78;98671.50;4420451;32;20506;-72
2022/06/02 01:55:38;;;;;;;1.90;1.58;;;;;;;17.70;57.25;98663.88;4420227;32;20105;-71
2022/06/02 01:58:34;;;;;;;1.42;1.23;;;;;;;17.68;57.60;98655.31;4485122;31;20134;-72
2022/06/02 02:01:13;;;;;;;2.37;1.10;;;;;;;17.75;57.00;98655.38;4483733;32;20862;-72
2022/06/02 02:03:54;;;;;;;2.08;1.23;;;;;;;17.76;56.95;98654.38;4484898;31;20363;-72
2022/06/02 02:06:31;;;;;;;1.85;1.30;;;;;;;17.82;56.70;98653.63;4483264;32;20100;-71
2022/06/02 02:09:06;;;;;;;2.95;1.30;;;;;;;17.86;56.24;98654.88;4484857;31;20131;-71
2022/06/02 02:11:45;;;;;;;2.45;1.35;;;;;;;17.87;56.39;98655.72;4484638;31;20101;-71
2022/06/02 02:14:32;;;;;;;3.45;1.20;;;;;;;17.82;56.50;98652.78;4483528;32;20147;-71
2022/06/02 02:17:02;;;;;;;1.50;1.15;;;;;;;17.82;56.37;98663.38;4420151;32;20102;-72
2022/06/02 02:20:04;;;;;;;2.55;1.42;;;;;;;17.89;55.78;98670.41;4420436;32;20216;-72
2022/06/02 02:22:55;;;;;;;6.95;1.50;;;;;;;17.84;56.29;98679.94;4419844;32;20122;-72
2022/06/02 02:25:43;;;;;;;2.75;1.48;;;;;;;17.76;59.73;98694.12;4374466;32;20619;-72
2022/06/02 02:28:19;;;;;;;2.83;2.17;;;;;;;17.56;64.00;98721.16;4374660;32;20130;-72
2022/06/02 02:31:05;;;;;;;3.03;2.30;;;;;;;16.68;72.43;98726.13;4362019;32;20134;-71
2022/06/02 02:33:42;;;;;;;2.95;2.15;;;;;;;16.39;75.30;98732.09;4374495;32;20119;-71
2022/06/02 02:36:12;;;;;;;3.78;2.33;;;;;;;16.25;74.95;98736.31;4374300;32;20461;-72
2022/06/02 02:38:42;;;;;;;5.43;2.30;;;;;;;16.02;74.42;98743.37;4374412;32;20103;-72
2022/06/02 02:41:24;;;;;;;4.78;3.08;;;;;;;15.80;77.10;98748.44;4374284;32;20113;-71
2022/06/02 02:43:57;;;;;;;3.20;2.70;;;;;;;15.78;74.30;98756.53;4374453;32;20154;-71
2022/06/02 02:46:36;;;;;;;5.35;2.90;;;;;;;15.70;76.64;98787.38;4374436;32;20594;-71
2022/06/02 02:49:18;;;;;;;6.93;3.78;;;;;;;15.72;76.40;98819.75;4374530;32;20141;-71
2022/06/02 02:52:02;;;;;;;5.40;3.80;;;;;;;15.42;80.50;98830.84;4375099;32;20531;-71
2022/06/02 02:55:20;;;;;;;7.05;4.43;;;;;;;15.11;88.28;98804.34;4391516;32;20155;-71
2022/06/02 02:58:07;;;;;;;6.47;4.50;;;;;;;14.67;93.35;98818.63;4361077;32;20126;-71
2022/06/02 03:00:49;;;;;;;6.45;3.87;;;;;;;14.44;98.91;98823.66;4361269;32;20150;-71
2022/06/02 03:03:20;;;;;;;9.70;3.62;;;;;;;14.32;100.00;98823.12;4410011;32;20146;-71
2022/06/02 03:06:12;;;;;;;6.00;3.58;;;;;;;14.19;100.00;98831.47;4421641;32;20111;-71
2022/06/02 03:08:48;;;;;;;5.65;4.20;;;;;;;14.01;100.00;98828.09;4421539;32;20121;-71
2022/06/02 03:11:40;;;;;;;11.95;5.25;;;;;;;13.89;100.00;98821.47;4421338;32;20149;-72
2022/06/02 03:14:28;;;;;;;11.73;4.78;;;;;;;13.82;100.00;98818.63;4421741;32;20129;-72
2022/06/02 03:17:07;;;;;;;8.80;4.75;;;;;;;13.80;100.00;98829.31;4421467;32;20227;-72
2022/06/02 03:20:00;;;;;;;6.65;4.85;;;;;;;13.73;100.00;98822.19;4408971;32;20109;-71
2022/06/02 03:22:29;;;;;;;8.18;4.97;;;;;;;13.62;100.00;98825.91;4408785;32;20470;-71
2022/06/02 03:25:11;;;;;;;7.47;4.85;;;;;;;13.66;100.00;98840.44;4421705;32;20097;-70
2022/06/02 03:27:54;;;;;;;8.68;5.70;;;;;;;13.62;100.00;98845.16;4408777;32;20094;-71
2022/06/02 03:30:24;;;;;;;6.03;4.68;;;;;;;13.60;100.00;98836.59;4421604;32;20090;-71
2022/06/02 03:32:57;;;;;;;9.65;4.43;;;;;;;13.55;100.00;98828.34;4424300;32;20143;-71
2022/06/02 03:35:39;;;;;;;9.38;4.97;;;;;;;13.51;100.00;98829.63;4486131;31;20113;-72
2022/06/02 03:38:25;;;;;;;7.85;4.95;;;;;;;13.52;100.00;98822.56;4484699;32;20092;-72
2022/06/02 03:41:18;;;;;;;8.57;5.40;;;;;;;13.44;100.00;98808.38;4485880;32;20144;-73
2022/06/02 03:44:00;;;;;;;9.63;4.93;;;;;;;13.41;100.00;98792.06;4421130;32;20109;-73
2022/06/02 03:46:48;;;;;;;7.87;5.40;;;;;;;13.36;100.00;98773.28;4409005;32;20102;-73
2022/06/02 03:49:52;;;;;;;8.55;5.05;;;;;;;13.45;100.00;98764.47;4408899;32;20117;-73
2022/06/02 03:52:34;;;;;;;8.98;4.62;;;;;;;13.52;100.00;98757.59;4421426;32;20073;-73
2022/06/02 03:55:42;;;;;;;6.15;4.43;;;;;;;13.66;100.00;98748.28;4408733;32;20106;-73
2022/06/02 03:58:16;;;;;;;8.35;5.00;;;;;;;13.68;100.00;98734.97;4375686;32;20142;-73
2022/06/02 04:00:48;;;;;;;7.97;5.62;;;;;;;13.59;100.00;98745.44;4376219;32;20082;-73
2022/06/02 04:03:31;;;;;;;7.62;5.60;;;;;;;13.51;100.00;98755.94;4375059;32;20137;-74
2022/06/02 04:06:32;;;;;;;8.80;6.15;;;;;;;13.44;100.00;98770.69;4375605;32;20279;-74
2022/06/02 04:09:19;;;;;;;8.55;5.28;;;;;;;13.32;100.00;98775.34;4372655;32;112522;-73
2022/06/02 04:15:12;;;;;;;6.75;5.18;;;;;;;13.21;100.00;98779.06;4375814;32;20111;-74
2022/06/02 04:17:49;;;;;;;9.80;5.68;;;;;;;13.38;100.00;98781.84;4363082;32;20127;-74
2022/06/02 04:20:34;;;;;;;9.80;5.95;;;;;;;13.41;100.00;98786.81;4390878;32;20140;-74
2022/06/02 04:23:19;;;;;;;8.27;5.75;;;;;;;13.45;100.00;98780.25;4421229;32;20594;-75
2022/06/02 04:25:56;;;;;;;6.85;5.37;;;;;;;13.61;100.00;98793.53;4421217;32;20139;-75
2022/06/02 04:28:41;;;;;;;6.40;4.87;;;;;;;13.70;100.00;98788.28;4421025;32;20210;-74
2022/06/02 04:31:18;;;;;;;7.47;5.28;;;;;;;13.78;100.00;98781.25;4416142;32;20129;-75
2022/06/02 04:34:10;;;;;;;6.30;4.68;;;;;;;13.89;100.00;98777.53;4405877;32;20112;-74
2022/06/02 04:36:51;;;;;;;7.50;5.07;;;;;;;13.94;100.00;98777.84;4468549;32;20111;-75
2022/06/02 04:39:38;;;;;;;6.93;4.60;;;;;;;14.01;100.00;98791.25;4469687;32;20116;-77
2022/06/02 04:42:20;;;;;;;9.77;5.15;;;;;;;14.07;100.00;98800.31;4468665;32;20105;-75
2022/06/02 04:44:53;;;;;;;7.78;4.90;;;;;;;14.09;100.00;98801.78;4469759;32;20107;-75
2022/06/02 04:47:26;;;;;;;8.13;4.67;;;;;;;14.19;100.00;98796.41;4469705;32;20103;-74
2022/06/02 04:49:59;;;;;;;7.97;4.47;;;;;;;14.28;100.00;98795.44;4469566;32;20092;-75
2022/06/02 04:52:48;;;;;;;7.40;4.53;;;;;;;14.45;100.00;98796.31;4473476;32;20138;-74
2022/06/02 04:55:37;;;;;;;5.15;4.37;;;;;;;14.55;100.00;98790.91;4480140;32;20092;-74
2022/06/02 04:58:16;;;;;;;6.65;3.85;;;;;;;14.60;100.00;98788.59;4484607;31;20473;-74
2022/06/02 05:01:27;;;;;;;7.05;3.80;;;;;;;14.78;100.00;98791.13;4478923;32;20093;-74
2022/06/02 05:04:25;;;;;;;9.65;3.80;;;;;;;14.88;100.00;98796.22;4475966;32;20139;-74
2022/06/02 05:07:16;;;;;;;7.43;3.95;;;;;;;14.97;100.00;98794.44;4446515;32;20151;-74
2022/06/02 05:10:14;;;;;;;4.87;3.90;;;;;;;15.15;100.00;98803.00;4444887;32;20737;-74
2022/06/02 05:12:50;;;;;;;4.32;3.92;;;;;;;15.13;100.00;98804.97;4401772;32;20195;-74
2022/06/02 05:15:40;;;;;;;5.32;3.80;;;;;;;15.14;100.00;98808.44;4405133;32;20436;-74
2022/06/02 05:18:13;;;;;;;4.97;3.75;;;;;;;15.22;100.00;98822.47;4405103;32;20094;-73
2022/06/02 05:21:36;;;;;;;6.40;3.78;;;;;;;15.22;100.00;98827.72;4403177;32;20169;-73
2022/06/02 05:24:55;;;;;;;4.25;3.53;;;;;;;15.30;100.00;98831.38;4319821;33;20162;-73
2022/06/02 05:27:48;;;;;;;4.32;3.20;;;;;;;15.33;100.00;98823.94;4325645;33;20115;-73
2022/06/02 05:31:03;;;;;;;6.12;3.80;;;;;;;16.12;100.00;98832.06;4500567;31;501837;-76
2022/06/02 05:33:55;;;;;;;4.80;3.55;;;;;;;16.12;100.00;98832.06;4511438;31;20150;-77
2022/06/02 05:36:38;;;;;;;4.10;3.58;;;;;;;15.72;100.00;98830.31;4509913;31;20071;-76
2022/06/02 05:39:24;;;;;;;4.73;3.27;;;;;;;15.72;100.00;98836.41;4506640;31;20102;-76
2022/06/02 05:42:13;;;;;;;4.37;3.50;;;;;;;15.83;100.00;98843.19;4508569;31;20096;-76
2022/06/02 05:45:04;;;;;;;3.95;3.30;;;;;;;16.18;100.00;98850.84;4501947;31;20143;-76
2022/06/02 05:47:38;;;;;;;3.87;2.85;;;;;;;16.48;100.00;98857.16;4509112;31;20135;-75
2022/06/02 05:50:32;;;;;;;3.40;2.70;;;;;;;16.69;100.00;98853.91;4502385;31;20202;-75
2022/06/02 05:53:09;;;;;;;3.55;2.87;;;;;;;17.08;100.00;98857.47;4493512;31;20104;-74
2022/06/02 05:56:15;;;;;;;3.45;2.58;;;;;;;17.58;98.77;98858.72;4468749;32;20179;-74
2022/06/02 05:59:01;;;;;;;8.25;3.70;;;;;;;18.00;95.96;98862.66;4431366;32;20135;-74
2022/06/02 06:01:47;;;;;;;4.30;3.85;;;;;;;18.35;95.00;98867.34;4433105;32;20671;-75
2022/06/02 06:04:26;;;;;;;6.43;4.10;;;;;;;18.44;95.10;98866.28;4420515;32;20180;-75
2022/06/02 06:07:02;;;;;;;4.85;3.95;;;;;;;18.55;94.81;98867.63;4424479;32;20170;-75
2022/06/02 06:09:33;;;;;;;4.37;3.53;;;;;;;18.61;88.31;98869.53;4433082;32;20203;-73
2022/06/02 06:12:38;;;;;;;4.93;3.40;;;;;;;18.80;88.52;98868.94;4434662;32;20288;-73
2022/06/02 06:15:26;;;;;;;5.18;2.90;;;;;;;19.07;88.46;98863.91;4355884;32;20138;-73
2022/06/02 06:18:28;;;;;;;8.52;2.87;;;;;;;19.35;83.97;98864.97;4321807;33;20115;-74
2022/06/02 06:21:02;;;;;;;5.55;3.45;;;;;;;19.64;77.82;98858.66;4323413;33;21078;-73
2022/06/02 06:23:44;;;;;;;;;;;;;;;19.83;78.16;98865.16;4324616;33;20631;-74
2022/06/02 06:26:12;;;;;;;2.87;2.22;;;;;;;19.77;75.66;98858.78;4325782;33;20504;-74
2022/06/02 06:29:22;;;;;;;8.85;2.62;;;;;;;19.76;74.17;98861.62;4321177;33;20107;-74
2022/06/02 06:32:04;;;;;;;3.72;2.35;;;;;;;19.49;76.62;98874.69;4317420;33;20142;-76
2022/06/02 06:35:01;;;;;;;3.20;2.10;;;;;;;19.28;76.05;98879.00;4333378;32;20122;-76
2022/06/02 06:37:34;;;;;;;2.78;2.40;;;;;;;18.91;77.04;98886.22;4303324;33;20173;-74
2022/06/02 06:40:37;;;;;;;3.25;2.05;;;;;;;19.06;79.38;98888.84;4307907;33;20100;-76
2022/06/02 06:43:19;;;;;;;3.15;2.00;;;;;;;19.19;76.28;98896.09;4303797;33;20814;-76
2022/06/02 06:45:49;;;;;;;4.18;2.00;;;;;;;19.61;74.94;98906.91;4279339;33;20092;-75
2022/06/02 06:48:30;;;;;;;3.42;2.10;;;;;;;19.73;71.03;98912.47;4297435;33;20544;-75
2022/06/02 06:51:23;;;;;;;2.40;1.85;;;;;;;19.85;71.11;98903.81;4314109;33;20127;-77
2022/06/02 06:53:54;;;;;;;4.07;2.33;;;;;;;20.37;73.29;98906.19;4318125;33;20162;-75
2022/06/02 06:57:01;;;;;;;3.12;2.70;;;;;;;20.58;70.22;98907.91;4377270;32;20154;-75
2022/06/02 06:59:32;;;;;;;3.42;2.00;;;;;;;20.84;67.90;98912.53;4365159;32;20144;-77
2022/06/02 07:02:28;;;;;;;3.22;2.00;;;;;;;20.58;68.98;98899.94;4366775;32;20487;-76
2022/06/02 07:05:01;;;;;;;3.42;1.65;;;;;;;20.60;69.32;98908.53;4376746;32;20103;-77
2022/06/02 07:07:49;;;;;;;4.20;2.08;;;;;;;20.69;67.19;98911.87;4377525;32;20151;-77
2022/06/02 07:10:28;;;;;;;5.20;2.17;;;;;;;20.22;69.60;98906.31;4378270;32;20197;-79
2022/06/02 07:13:18;;;;;;;2.08;1.85;;;;;;;20.55;71.12;98905.66;4377828;32;20172;-79
2022/06/02 07:16:18;;;;;;;2.45;2.05;;;;;;;20.62;70.73;98914.50;4419215;32;20207;-79
2022/06/02 07:19:09;;;;;;;2.85;2.05;;;;;;;20.33;69.99;98916.41;4384901;32;20117;-79
2022/06/02 07:22:10;;;;;;;3.12;2.00;;;;;;;20.15;73.84;98919.56;4383997;32;20121;-78
2022/06/02 07:24:57;;;;;;;4.30;2.25;;;;;;;19.87;72.96;98921.44;4372054;32;20271;-79
2022/06/02 07:27:35;;;;;;;2.30;1.98;;;;;;;20.03;72.15;98921.94;4375350;32;20110;-78
2022/06/02 07:30:16;;;;;;;3.42;2.05;;;;;;;20.00;72.86;98916.19;4376604;32;20465;-75
2022/06/02 07:32:55;;;;;;;3.28;2.20;;;;;;;20.15;nan;98918.75;4380245;32;20110;-75
2022/06/02 07:35:31;;;;;;;2.37;2.17;;;;;;;20.42;72.08;98921.56;4388828;32;20313;-76
2022/06/02 07:38:12;;;;;;;4.55;2.30;;;;;;;20.15;73.69;98914.25;4412663;32;20145;-75
2022/06/02 07:40:51;;;;;;;5.97;3.42;;;;;;;20.31;71.47;98906.97;4417602;32;20135;-76
2022/06/02 07:43:38;;;;;;;6.15;2.45;;;;;;;20.44;71.78;98912.38;4413208;32;20184;-74
2022/06/02 07:46:25;;;;;;;3.95;3.17;;;;;;;20.54;69.72;98919.97;4410944;32;20113;-73
2022/06/02 07:48:57;;;;;;;4.57;2.60;;;;;;;20.28;71.73;98926.81;4408940;32;20332;-73
2022/06/02 07:51:56;;;;;;;4.22;2.25;;;;;;;20.27;70.70;98929.66;4405991;32;20110;-71
2022/06/02 07:54:28;;;;;;;7.20;2.75;;;;;;;20.25;70.45;98919.22;4370601;32;20122;-72
2022/06/02 07:57:04;;;;;;;4.10;3.17;;;;;;;20.25;70.69;98916.56;4399699;32;20109;-74
2022/06/02 07:59:46;;;;;;;5.47;3.58;;;;;;;20.50;72.25;98921.38;4390838;32;20203;-74
2022/06/02 08:02:37;;;;;;;5.68;2.95;;;;;;;20.60;75.17;98921.03;4391610;32;20118;-72
2022/06/02 08:05:34;;;;;;;5.18;3.30;;;;;;;20.43;69.87;98926.69;4405737;32;20117;-75
2022/06/02 08:08:17;;;;;;;5.47;3.50;;;;;;;20.49;68.40;98941.03;4394474;32;20136;-74
2022/06/02 08:11:12;;;;;;;4.95;3.47;;;;;;;20.58;70.65;98933.72;4406837;32;20158;-74
2022/06/02 08:13:58;;;;;;;6.60;4.07;;;;;;;20.70;74.57;98929.50;4408008;32;20123;-74
2022/06/02 08:16:50;;;;;;;7.00;3.78;;;;;;;20.70;68.68;98930.31;4395015;32;20122;-76
2022/06/02 08:19:28;;;;;;;8.38;4.20;;;;;;;20.62;72.95;98924.28;4407307;32;20125;-74
2022/06/02 08:22:01;;;;;;;4.85;3.80;;;;;;;20.85;73.09;98934.69;4393043;32;20105;-75
2022/06/02 08:24:52;;;;;;;7.97;4.27;;;;;;;20.94;72.08;98938.81;4394933;32;20117;-74
2022/06/02 08:27:47;;;;;;;7.75;4.65;;;;;;;20.86;70.38;98941.63;4395066;32;20184;-75
2022/06/02 08:30:27;;;;;;;7.20;4.20;;;;;;;20.89;73.74;98943.88;4414168;32;20143;-74
2022/06/02 08:33:35;;;;;;;5.22;3.95;;;;;;;20.99;73.55;98941.66;4459032;32;20230;-75
2022/06/02 08:36:10;;;;;;;9.52;4.62;;;;;;;20.96;73.71;98942.06;4387313;32;20113;-75
2022/06/02 08:38:55;;;;;;;6.65;3.87;;;;;;;21.09;70.85;98952.78;4389390;32;20814;-75
2022/06/02 08:41:47;;;;;;;4.60;3.40;;;;;;;21.18;67.67;98939.25;4378897;32;21734;-75
2022/06/02 08:44:45;;;;;;;2.53;2.30;;;;;;;21.17;70.69;98940.28;4390980;32;20149;-75
2022/06/02 08:47:38;;;;;;;6.22;2.75;;;;;;;21.13;67.38;98933.72;4385455;32;20098;-75
2022/06/02 08:50:28;;;;;;;3.35;2.20;;;;;;;21.26;68.90;98947.06;4329697;32;20115;-75
2022/06/02 08:53:15;;;;;;;4.05;2.30;;;;;;;21.39;66.68;98947.09;4330026;32;20364;-75
2022/06/02 08:56:32;;;;;;;3.20;2.45;;;;;;;21.42;66.79;98945.84;4332934;32;20202;-75
2022/06/02 08:59:17;;;;;;;2.67;2.40;;;;;;;21.53;67.83;98947.97;4273463;33;20120;-76
2022/06/02 09:02:10;;;;;;;3.45;2.60;;;;;;;21.85;66.76;98950.00;4274128;33;20192;-76
2022/06/02 09:05:14;;;;;;;4.03;2.70;;;;;;;21.89;66.46;98953.91;4271708;33;20204;-75
2022/06/02 09:08:06;;;;;;;4.75;2.62;;;;;;;21.83;64.92;98952.06;4272782;33;20526;-75
2022/06/02 09:11:01;;;;;;;4.43;2.62;;;;;;;21.94;66.80;98962.94;4273751;33;20152;-76
2022/06/02 09:13:48;;;;;;;3.22;2.85;;;;;;;21.82;66.03;98975.25;4313952;32;20137;-76
2022/06/02 09:16:43;;;;;;;3.60;2.65;;;;;;;21.75;67.06;98971.75;4345034;32;20135;-77
2022/06/02 09:19:19;;;;;;;5.47;2.70;;;;;;;22.17;65.12;98969.69;4346512;32;20163;-77
2022/06/02 09:22:01;;;;;;;6.50;2.28;;;;;;;22.74;64.41;98969.16;4346572;32;20154;-76
2022/06/02 09:24:51;;;;;;;3.03;2.00;;;;;;;22.62;65.06;98975.16;4347895;32;20159;-76
2022/06/02 09:27:33;;;;;;;5.05;2.15;;;;;;;22.46;63.21;98971.09;4380266;32;20132;-77
2022/06/02 09:30:08;;;;;;;6.00;3.03;;;;;;;22.68;64.54;98970.84;4410718;32;20232;-76
2022/06/02 09:33:37;;;;;;;7.30;2.87;;;;;;;22.84;66.98;98970.34;4410742;32;20093;-76
2022/06/02 09:36:36;;;;;;;4.32;2.72;;;;;;;22.76;64.10;98969.78;4446232;32;20196;-77
2022/06/02 09:39:22;;;;;;;6.15;3.10;;;;;;;22.41;68.62;98978.91;4465189;32;20084;-77
2022/06/02 09:42:08;;;;;;;4.62;2.65;;;;;;;22.14;68.38;98988.78;4466296;32;20155;-76
2022/06/02 09:44:58;;;;;;;4.15;2.60;;;;;;;22.19;65.21;98985.50;4469621;32;20096;-77
2022/06/02 09:47:47;;;;;;;3.00;2.40;;;;;;;22.41;65.78;98980.78;4457875;32;20604;-76
2022/06/02 09:50:39;;;;;;;3.72;2.53;;;;;;;22.79;64.48;98972.84;4467166;32;20104;-77
2022/06/02 09:53:19;;;;;;;3.85;2.30;;;;;;;23.06;62.72;98966.53;4469489;31;20084;-76
2022/06/02 09:56:24;;;;;;;3.65;2.72;;;;;;;22.72;61.74;98961.34;4460979;32;20097;-77
2022/06/02 09:59:06;;;;;;;5.68;2.50;;;;;;;22.66;61.32;98957.69;4456809;32;20111;-75
2022/06/02 10:02:00;;;;;;;4.15;2.17;;;;;;;22.84;61.50;98954.31;4462029;32;20108;-75
2022/06/02 10:05:13;;;;;;;3.22;2.47;;;;;;;22.81;62.22;98965.41;4401303;32;20217;-74
2022/06/02 10:07:44;;;;;;;2.80;2.00;;;;;;;23.08;60.67;98954.63;4334053;32;20149;-74
2022/06/02 10:10:43;;;;;;;2.53;2.20;;;;;;;23.16;60.71;98957.06;4342783;32;20175;-74
2022/06/02 10:13:26;;;;;;;4.95;2.90;;;;;;;23.25;62.05;98948.81;4342815;32;20125;-76
2022/06/02 10:16:09;;;;;;;5.85;2.85;;;;;;;23.62;63.12;98948.94;4334526;32;20213;-74
2022/06/02 10:19:02;;;;;;;2.83;2.30;;;;;;;23.59;61.11;98960.06;4338793;32;20158;-75
2022/06/02 10:21:29;;;;;;;4.40;3.60;;;;;;;23.50;61.43;98965.69;4288978;33;20149;-74
2022/06/02 10:24:29;;;;;;;2.87;2.58;;;;;;;23.33;61.60;98962.75;4289813;33;20223;-75
2022/06/02 10:27:31;;;;;;;3.15;2.85;;;;;;;23.74;61.22;98964.09;4289037;33;20208;-75
2022/06/02 10:30:27;;;;;;;4.00;2.50;;;;;;;23.70;58.91;98959.38;4290058;33;20901;-75
2022/06/02 10:33:06;;;;;;;2.05;1.85;;;;;;;23.74;58.42;98957.94;4289569;33;20128;-75
2022/06/02 10:36:09;;;;;;;2.42;2.15;;;;;;;24.10;58.47;98961.72;4289189;33;20104;-76
2022/06/02 10:39:18;;;;;;;4.72;2.45;;;;;;;23.78;57.45;98959.09;4253625;33;20173;-74
2022/06/02 10:42:11;;;;;;;2.65;2.42;;;;;;;23.96;55.30;98954.88;4281237;33;20139;-78
2022/06/02 10:44:47;;;;;;;2.90;2.20;;;;;;;23.77;56.73;98962.00;4302289;33;20119;-78
2022/06/02 10:47:20;;;;;;;3.72;2.42;;;;;;;23.81;58.40;98964.03;4305527;33;20179;-76
2022/06/02 10:50:08;;;;;;;6.05;2.40;;;;;;;23.92;57.38;98966.03;4314807;33;21001;-74
2022/06/02 10:52:44;;;;;;;7.60;2.55;;;;;;;23.99;57.56;98959.78;4304998;33;20158;-73
2022/06/02 10:55:49;;;;;;;4.68;2.47;;;;;;;24.01;56.83;98974.59;4306143;33;20218;-77
2022/06/02 10:58:40;;;;;;;2.80;2.45;;;;;;;24.17;56.53;98964.37;4330319;32;20200;-75
2022/06/02 11:01:30;;;;;;;2.60;2.40;;;;;;;24.52;57.81;98967.28;4385264;32;20129;-75
2022/06/02 11:04:25;;;;;;;4.45;2.80;;;;;;;24.82;58.16;98963.87;4390434;32;20102;-75
2022/06/02 11:07:29;;;;;;;4.25;2.30;;;;;;;24.61;56.32;98973.19;4393063;32;20098;-78
2022/06/02 11:10:16;;;;;;;;;;;;;;;24.49;57.40;98962.38;4392980;32;20106;-76
2022/06/02 11:12:55;;;;;;;3.25;2.92;;;;;;;24.43;55.02;98955.22;4396764;32;20049;-75
2022/06/02 11:15:44;;;;;;;3.83;2.37;;;;;;;24.85;57.13;98957.25;4452511;32;20489;-75
2022/06/02 11:18:49;;;;;;;4.70;2.83;;;;;;;24.70;56.00;98958.44;4465623;32;20152;-75
2022/06/02 11:21:32;;;;;;;4.18;2.55;;;;;;;24.22;55.59;98962.63;4395792;32;20211;-75
2022/06/02 11:24:29;;;;;;;2.72;2.10;;;;;;;24.45;55.42;98958.50;4396971;32;20130;-75
2022/06/02 11:27:17;;;;;;;3.08;2.37;;;;;;;24.39;54.73;98957.53;4385199;32;20102;-75
2022/06/02 11:29:50;;;;;;;3.22;2.33;;;;;;;24.73;54.24;98970.59;4385027;32;20218;-75
2022/06/02 11:32:35;;;;;;;1.85;1.70;;;;;;;24.77;54.09;98961.06;4397004;32;20153;-75
2022/06/02 11:35:37;;;;;;;4.30;2.30;;;;;;;24.92;52.50;98968.69;4396922;32;20260;-75
2022/06/02 11:38:07;;;;;;;2.97;2.00;;;;;;;25.14;51.27;98972.53;4397547;32;20618;-76
2022/06/02 11:41:27;;;;;;;4.05;2.10;;;;;;;25.15;51.58;98984.09;4398205;32;20142;-76
2022/06/02 11:43:57;;;;;;;3.92;1.77;;;;;;;24.85;52.40;98968.78;4387661;32;20102;-76
2022/06/02 11:46:45;;;;;;;1.45;1.27;;;;;;;24.94;50.46;98970.09;4397822;32;20223;-77
2022/06/02 11:49:22;;;;;;;3.53;1.35;;;;;;;25.15;51.32;98979.53;4402945;32;20117;-77
2022/06/02 11:51:55;;;;;;;2.42;1.73;;;;;;;25.64;48.16;98978.66;4396232;32;20109;-78
2022/06/02 11:54:40;;;;;;;2.00;1.65;;;;;;;25.32;47.50;98982.41;4396619;32;20097;-78
2022/06/02 11:57:26;;;;;;;2.75;1.70;;;;;;;25.15;49.53;98971.47;4414587;32;20120;-76
2022/06/02 11:59:56;;;;;;;2.08;1.27;;;;;;;25.09;48.65;98976.94;4464774;32;20161;-76
2022/06/02 12:02:30;;;;;;;1.70;1.60;;;;;;;25.50;50.21;98972.69;4463946;31;20152;-75
2022/06/02 12:05:35;;;;;;;5.07;1.75;;;;;;;25.52;47.25;98975.13;4465355;32;20198;-75
2022/06/02 12:08:11;;;;;;;1.70;1.60;;;;;;;25.66;47.25;98968.50;4460706;32;20116;-74
2022/06/02 12:11:13;;;;;;;1.52;1.42;;;;;;;25.56;45.87;98973.63;4462754;32;20146;-75
2022/06/02 12:13:55;;;;;;;2.90;1.25;;;;;;;25.76;45.97;98973.31;4459886;32;20108;-75
2022/06/02 12:16:28;;;;;;;1.33;1.20;;;;;;;25.77;47.47;98964.19;4452559;31;20169;-75
2022/06/02 12:19:06;;;;;;;2.22;1.25;;;;;;;25.78;46.50;98980.06;4459049;32;20163;-75
2022/06/02 12:21:52;;;;;;;1.83;1.33;;;;;;;26.18;45.56;98978.63;4460585;32;20188;-75
2022/06/02 12:24:42;;;;;;;1.70;1.60;;;;;;;26.14;45.74;98983.62;4463788;32;20101;-75
2022/06/02 12:27:18;;;;;;;1.75;1.65;;;;;;;26.08;45.78;98987.25;4457625;32;20123;-75
2022/06/02 12:30:03;;;;;;;6.45;1.98;;;;;;;25.66;47.44;98996.16;4455857;32;20120;-75
2022/06/02 12:33:03;;;;;;;3.40;1.70;;;;;;;25.01;47.87;98987.97;4459352;32;20538;-75
2022/06/02 12:35:58;;;;;;;2.03;1.73;;;;;;;25.07;48.17;98979.84;4465543;32;20109;-74
2022/06/02 12:39:05;;;;;;;1.65;1.37;;;;;;;24.61;48.18;98986.59;4462079;32;20105;-74
2022/06/02 12:42:09;;;;;;;1.55;1.42;;;;;;;25.09;49.34;98985.00;4390175;32;20141;-73
2022/06/02 12:45:02;;;;;;;1.75;1.40;;;;;;;25.30;47.63;98981.84;4391800;32;20210;-74
2022/06/02 12:47:46;;;;;;;1.62;1.10;;;;;;;25.41;46.47;98985.59;4391396;32;20480;-74
2022/06/02 12:50:44;;;;;;;1.12;1.02;;;;;;;25.77;46.47;98994.53;4391693;32;20125;-74
2022/06/02 12:53:40;;;;;;;1.30;1.20;;;;;;;25.77;45.18;98996.41;4374444;32;20153;-74
2022/06/02 12:56:28;;;;;;;1.55;1.08;;;;;;;25.94;44.56;98994.69;4391438;32;20105;-74
2022/06/02 12:58:55;;;;;;;2.47;1.10;;;;;;;26.25;45.05;98991.91;4388892;32;20188;-75
2022/06/02 13:02:10;;;;;;;2.75;1.17;;;;;;;26.27;43.81;98990.62;4389475;32;20110;-75
2022/06/02 13:04:44;;;;;;;6.70;1.40;;;;;;;26.52;43.26;98997.63;4340800;32;20100;-75
2022/06/02 13:07:33;;;;;;;1.77;1.40;;;;;;;26.42;43.13;99005.44;4338791;32;20194;-75